Time;durP1;ratioP1;P1;durP2;ratioP2;P2;SDS_P1;SDS_P2;PMS_P1;PMS_P2;Temp;Humidity;BMP_temperature;BMP_pressure;BME280_temperature;BME280_humidity;BME280_pressure;Samples;Min_cycle;Max_cycle;Signal;HPM_P1;HPM_P2
2023/03/05 00:00:12;;;;;;;8.45;1.77;;;4.10;99.90;;;;;;5069207;28;20040;-74
2023/03/05 00:02:38;;;;;;;1.05;1.00;;;4.10;99.90;;;;;;5069137;28;20059;-74
2023/03/05 00:05:04;;;;;;;1.45;1.08;;;4.10;99.90;;;;;;5086981;28;20044;-74
2023/03/05 00:07:30;;;;;;;2.72;0.73;;;4.10;99.90;;;;;;5087363;28;20047;-74
2023/03/05 00:09:59;;;;;;;3.20;0.63;;;4.00;99.90;;;;;;5069138;28;20063;-74
2023/03/05 00:12:25;;;;;;;0.77;0.75;;;4.00;99.90;;;;;;5086314;28;20056;-74
2023/03/05 00:14:50;;;;;;;0.57;0.40;;;4.00;99.90;;;;;;5068833;28;20527;-74
2023/03/05 00:17:16;;;;;;;1.30;0.82;;;4.00;99.90;;;;;;5068400;28;20048;-74
2023/03/05 00:19:42;;;;;;;3.25;0.95;;;4.00;99.90;;;;;;5087114;28;20043;-73
2023/03/05 00:22:08;;;;;;;2.30;0.82;;;4.00;99.90;;;;;;5062362;28;20146;-74
2023/03/05 00:24:34;;;;;;;1.25;0.55;;;4.00;99.90;;;;;;5048654;28;20045;-73
2023/03/05 00:27:00;;;;;;;1.83;0.70;;;4.10;99.90;;;;;;5030960;28;20044;-74
2023/03/05 00:29:26;;;;;;;0.88;0.50;;;4.00;99.90;;;;;;5032343;28;20055;-74
2023/03/05 00:31:52;;;;;;;1.70;1.25;;;4.10;99.90;;;;;;5048665;28;20088;-74
2023/03/05 00:34:19;;;;;;;4.10;1.48;;;4.00;99.90;;;;;;5070258;28;20044;-73
2023/03/05 00:36:48;;;;;;;1.67;1.23;;;4.00;99.90;;;;;;5048347;28;20094;-73
2023/03/05 00:39:14;;;;;;;0.70;0.65;;;4.00;99.90;;;;;;5068678;28;20040;-74
2023/03/05 00:41:40;;;;;;;2.35;0.90;;;4.00;99.90;;;;;;5048675;28;20071;-74
2023/03/05 00:44:06;;;;;;;1.38;0.80;;;4.00;99.90;;;;;;5074234;28;20475;-74
2023/03/05 00:46:32;;;;;;;6.03;1.35;;;4.00;99.90;;;;;;5044516;28;20511;-74
2023/03/05 00:48:57;;;;;;;2.10;0.90;;;4.00;99.90;;;;;;5050062;28;20045;-73
2023/03/05 00:51:24;;;;;;;1.25;0.98;;;4.00;99.90;;;;;;5042871;28;20040;-73
2023/03/05 00:53:50;;;;;;;1.33;0.90;;;4.00;99.90;;;;;;5031742;28;20044;-73
2023/03/05 00:56:16;;;;;;;6.90;1.95;;;4.00;99.90;;;;;;5062634;28;20097;-74
2023/03/05 00:58:41;;;;;;;8.65;1.35;;;3.90;99.90;;;;;;5067208;28;20461;-74
2023/03/05 01:01:07;;;;;;;2.45;0.65;;;3.90;99.90;;;;;;5051682;28;20040;-74
2023/03/05 01:03:34;;;;;;;4.60;2.22;;;3.90;99.90;;;;;;5051303;28;20084;-74
2023/03/05 01:06:03;;;;;;;1.33;0.80;;;3.90;99.90;;;;;;5081568;28;20048;-74
2023/03/05 01:08:28;;;;;;;1.08;0.98;;;3.90;99.90;;;;;;5068111;28;20045;-73
2023/03/05 01:10:54;;;;;;;1.42;1.10;;;3.90;99.90;;;;;;5052695;28;20055;-73
2023/03/05 01:13:20;;;;;;;1.15;0.88;;;3.90;99.90;;;;;;5084678;28;20059;-75
2023/03/05 01:15:47;;;;;;;3.17;1.00;;;3.80;99.90;;;;;;5086079;28;20182;-72
2023/03/05 01:18:13;;;;;;;2.00;0.60;;;3.80;99.90;;;;;;5067589;28;20051;-72
2023/03/05 01:20:38;;;;;;;2.03;1.17;;;3.80;99.90;;;;;;5086223;28;20040;-72
2023/03/05 01:23:04;;;;;;;2.42;1.02;;;3.80;99.90;;;;;;5083516;28;20045;-72
2023/03/05 01:25:30;;;;;;;2.35;1.05;;;3.80;99.90;;;;;;5052142;28;20488;-72
2023/03/05 01:27:55;;;;;;;1.80;0.70;;;3.80;99.90;;;;;;5069268;28;20143;-72
2023/03/05 01:30:21;;;;;;;4.65;0.65;;;3.80;99.90;;;;;;5051728;28;20040;-72
2023/03/05 01:32:47;;;;;;;10.85;1.58;;;3.80;99.90;;;;;;5052368;28;20444;-72
2023/03/05 01:35:19;;;;;;;3.28;1.15;;;3.80;99.90;;;;;;5069902;28;20063;-72
2023/03/05 01:37:45;;;;;;;3.60;1.48;;;3.80;99.90;;;;;;5069812;28;20047;-72
2023/03/05 01:40:13;;;;;;;3.85;1.45;;;3.70;99.90;;;;;;5069616;28;20040;-73
2023/03/05 01:42:38;;;;;;;1.05;0.65;;;3.70;99.90;;;;;;5034120;28;20110;-73
2023/03/05 01:45:22;;;;;;;2.65;0.80;;;3.60;99.90;;;;;;5069887;28;20044;-73
2023/03/05 01:47:48;;;;;;;7.10;1.70;;;3.50;99.90;;;;;;5069590;28;20468;-72
2023/03/05 01:50:19;;;;;;;0.30;0.30;;;3.50;99.90;;;;;;5089539;28;20107;-73
2023/03/05 01:52:53;;;;;;;1.75;0.55;;;3.40;99.90;;;;;;5072081;28;20161;-72
2023/03/05 01:55:22;;;;;;;1.48;0.63;;;3.40;99.90;;;;;;5054806;28;20043;-73
2023/03/05 01:58:05;;;;;;;0.52;0.52;;;3.40;99.90;;;;;;5070538;28;20043;-73
2023/03/05 02:00:39;;;;;;;0.47;0.47;;;3.40;99.90;;;;;;5059161;28;20053;-73
2023/03/05 02:03:08;;;;;;;2.43;1.13;;;3.40;99.90;;;;;;5051245;28;20044;-72
2023/03/05 02:05:37;;;;;;;3.95;0.75;;;3.30;99.90;;;;;;5069111;28;20033;-73
2023/03/05 02:08:07;;;;;;;0.40;0.22;;;3.40;99.90;;;;;;5051215;28;20496;-73
2023/03/05 02:10:36;;;;;;;1.38;0.70;;;3.30;99.90;;;;;;5069418;28;20044;-72
2023/03/05 02:13:07;;;;;;;1.38;0.98;;;3.30;99.90;;;;;;5070200;28;20136;-73
2023/03/05 02:15:33;;;;;;;2.42;0.68;;;3.30;99.90;;;;;;5071410;28;20044;-73
2023/03/05 02:18:00;;;;;;;3.03;0.68;;;3.30;99.90;;;;;;5073179;28;20047;-72
2023/03/05 02:20:28;;;;;;;5.38;1.13;;;3.30;99.90;;;;;;5051768;28;20131;-72
2023/03/05 02:22:54;;;;;;;0.40;0.40;;;3.30;99.90;;;;;;5053740;28;20072;-72
2023/03/05 02:25:28;;;;;;;0.80;0.47;;;3.30;99.90;;;;;;5080028;28;20523;-72
2023/03/05 02:28:04;;;;;;;5.13;1.73;;;3.30;99.90;;;;;;5049955;28;20048;-73
2023/03/05 02:30:31;;;;;;;1.35;1.05;;;3.20;99.90;;;;;;5065395;28;20079;-72
2023/03/05 02:32:57;;;;;;;1.23;0.53;;;3.20;99.90;;;;;;5089608;28;20055;-72
2023/03/05 02:35:23;;;;;;;0.82;0.45;;;3.20;99.90;;;;;;5070684;28;20097;-72
2023/03/05 02:37:49;;;;;;;1.63;0.35;;;3.20;99.90;;;;;;5070805;28;20055;-72
2023/03/05 02:40:15;;;;;;;9.00;0.70;;;3.20;99.90;;;;;;5053910;28;20051;-72
2023/03/05 02:42:41;;;;;;;1.65;1.00;;;3.20;99.90;;;;;;5072894;28;20719;-72
2023/03/05 02:45:07;;;;;;;0.75;0.75;;;3.20;99.90;;;;;;5068092;28;20477;-72
2023/03/05 02:47:33;;;;;;;1.10;0.80;;;3.20;99.90;;;;;;5068772;28;20085;-72
2023/03/05 02:49:58;;;;;;;0.28;0.28;;;3.20;99.90;;;;;;5034470;28;20036;-72
2023/03/05 02:52:24;;;;;;;5.10;1.48;;;3.30;99.90;;;;;;5068255;28;20045;-72
2023/03/05 02:54:51;;;;;;;2.60;1.08;;;3.30;99.90;;;;;;5050457;28;20128;-72
2023/03/05 02:57:17;;;;;;;2.70;0.88;;;3.30;99.90;;;;;;5067002;28;20101;-72
2023/03/05 02:59:44;;;;;;;1.00;0.52;;;3.30;99.90;;;;;;5068285;28;20051;-72
2023/03/05 03:02:09;;;;;;;1.25;0.80;;;3.30;99.90;;;;;;5033781;28;20041;-72
2023/03/05 03:04:35;;;;;;;1.65;0.77;;;3.30;99.90;;;;;;5050409;28;20170;-72
2023/03/05 03:07:00;;;;;;;6.90;1.13;;;3.40;99.90;;;;;;5067818;28;20036;-73
2023/03/05 03:09:26;;;;;;;2.43;0.87;;;3.40;99.90;;;;;;5068646;28;20041;-72
2023/03/05 03:11:52;;;;;;;0.93;0.55;;;3.40;99.90;;;;;;5032565;28;20523;-72
2023/03/05 03:14:18;;;;;;;3.53;0.77;;;3.40;99.90;;;;;;5049672;28;20049;-72
2023/03/05 03:16:44;;;;;;;0.75;0.63;;;3.40;99.90;;;;;;5049857;28;20040;-72
2023/03/05 03:19:10;;;;;;;1.50;0.95;;;3.40;99.90;;;;;;5082271;28;20094;-72
2023/03/05 03:21:35;;;;;;;1.83;0.90;;;3.40;99.90;;;;;;5070429;28;20104;-72
2023/03/05 03:24:01;;;;;;;0.63;0.60;;;3.40;99.90;;;;;;5087691;28;20044;-72
2023/03/05 03:26:27;;;;;;;3.97;1.02;;;3.40;99.90;;;;;;5064102;28;20064;-72
2023/03/05 03:28:52;;;;;;;2.38;0.70;;;3.40;99.90;;;;;;5083130;28;20043;-72
2023/03/05 03:31:18;;;;;;;2.33;1.00;;;3.40;99.90;;;;;;5052119;28;20036;-72
2023/03/05 03:33:44;;;;;;;1.00;0.90;;;3.40;99.90;;;;;;5059362;28;20121;-72
2023/03/05 03:36:10;;;;;;;6.07;1.50;;;3.40;99.90;;;;;;5067462;28;20489;-72
2023/03/05 03:38:35;;;;;;;5.25;1.05;;;3.40;99.90;;;;;;5085056;28;20106;-72
2023/03/05 03:41:01;;;;;;;1.58;0.98;;;3.30;99.90;;;;;;5087062;28;20036;-72
2023/03/05 03:43:27;;;;;;;0.65;0.65;;;3.30;99.90;;;;;;5069868;28;20126;-72
2023/03/05 03:45:52;;;;;;;2.72;1.67;;;3.30;99.90;;;;;;5085134;28;20039;-72
2023/03/05 03:48:18;;;;;;;0.85;0.82;;;3.30;99.90;;;;;;5049556;28;20084;-72
2023/03/05 03:50:43;;;;;;;1.92;0.80;;;3.30;99.90;;;;;;5084609;28;20036;-72
2023/03/05 03:53:13;;;;;;;1.30;1.20;;;3.30;99.90;;;;;;5086911;28;20115;-72
2023/03/05 03:55:41;;;;;;;5.10;1.17;;;3.30;99.90;;;;;;5069260;28;20050;-72
2023/03/05 03:58:07;;;;;;;1.67;0.65;;;3.30;99.90;;;;;;5068174;28;20564;-72
2023/03/05 04:00:33;;;;;;;15.57;0.95;;;3.30;99.90;;;;;;5087369;28;20039;-72
2023/03/05 04:02:59;;;;;;;1.13;0.57;;;3.30;99.90;;;;;;5052959;28;20043;-72
2023/03/05 04:05:24;;;;;;;0.98;0.50;;;3.30;99.90;;;;;;5087199;28;20039;-72
2023/03/05 04:07:50;;;;;;;2.25;0.70;;;3.30;99.90;;;;;;5087167;28;20044;-72
2023/03/05 04:10:16;;;;;;;3.88;0.80;;;3.30;99.90;;;;;;5087003;28;20040;-73
2023/03/05 04:12:42;;;;;;;0.60;0.40;;;3.30;99.90;;;;;;5067975;28;20081;-72
2023/03/05 04:15:09;;;;;;;0.52;0.50;;;3.30;99.90;;;;;;5052196;28;20032;-72
2023/03/05 04:17:35;;;;;;;0.93;0.80;;;3.40;99.90;;;;;;5087082;28;20126;-72
2023/03/05 04:20:01;;;;;;;2.25;0.95;;;3.40;99.90;;;;;;5086650;28;20119;-72
2023/03/05 04:22:27;;;;;;;3.22;0.88;;;3.40;99.90;;;;;;5087426;28;20039;-72
2023/03/05 04:24:52;;;;;;;5.53;2.22;;;3.40;99.90;;;;;;5068640;28;20537;-72
2023/03/05 04:27:18;;;;;;;1.17;0.65;;;3.40;99.90;;;;;;5068498;28;20568;-72
2023/03/05 04:29:43;;;;;;;0.52;0.52;;;3.40;99.90;;;;;;5066708;28;20125;-73
2023/03/05 04:32:09;;;;;;;2.85;0.80;;;3.40;99.90;;;;;;5048485;28;20055;-72
2023/03/05 04:34:36;;;;;;;8.25;1.98;;;3.40;99.90;;;;;;5066820;28;20032;-72
2023/03/05 04:37:02;;;;;;;0.80;0.38;;;3.40;99.90;;;;;;5066287;28;20036;-72
2023/03/05 04:39:28;;;;;;;3.10;0.77;;;3.30;99.90;;;;;;5078987;28;20568;-72
2023/03/05 04:41:53;;;;;;;0.93;0.70;;;3.30;99.90;;;;;;5059652;28;20502;-72
2023/03/05 04:44:22;;;;;;;2.10;0.80;;;3.30;99.90;;;;;;5079680;28;20054;-72
2023/03/05 04:46:48;;;;;;;2.65;0.57;;;3.30;99.90;;;;;;5075303;28;20047;-72
2023/03/05 04:49:14;;;;;;;7.63;1.95;;;3.30;99.90;;;;;;5077377;28;20315;-72
2023/03/05 04:51:40;;;;;;;1.65;1.00;;;3.30;99.90;;;;;;5066205;28;20507;-73
2023/03/05 04:54:06;;;;;;;2.20;0.90;;;3.30;99.90;;;;;;5060009;28;20051;-72
2023/03/05 04:56:32;;;;;;;1.80;0.60;;;3.30;99.90;;;;;;5084838;28;20044;-73
2023/03/05 04:58:58;;;;;;;1.92;1.48;;;3.30;99.90;;;;;;5051818;28;20036;-72
2023/03/05 05:01:24;;;;;;;8.70;0.73;;;3.30;99.90;;;;;;5086207;28;20040;-72
2023/03/05 05:03:49;;;;;;;1.95;0.88;;;3.30;99.90;;;;;;5086279;28;20105;-72
2023/03/05 05:06:15;;;;;;;2.28;0.80;;;3.30;99.90;;;;;;5074068;28;20064;-72
2023/03/05 05:08:40;;;;;;;3.47;1.35;;;3.30;99.90;;;;;;5066100;28;20098;-72
2023/03/05 05:11:07;;;;;;;3.75;0.98;;;3.40;99.90;;;;;;5064942;28;20041;-72
2023/03/05 05:13:34;;;;;;;3.30;1.65;;;3.40;99.90;;;;;;5066181;28;20120;-72
2023/03/05 05:15:59;;;;;;;0.93;0.73;;;3.40;99.90;;;;;;5048375;28;20048;-73
2023/03/05 05:18:25;;;;;;;2.58;1.50;;;3.40;99.90;;;;;;5048139;28;20036;-73
2023/03/05 05:20:51;;;;;;;1.08;0.60;;;3.40;99.90;;;;;;5065885;28;20115;-72
2023/03/05 05:23:17;;;;;;;3.08;1.80;;;3.40;99.90;;;;;;5065465;28;20132;-72
2023/03/05 05:25:44;;;;;;;5.78;1.17;;;3.40;99.90;;;;;;5065142;28;20041;-74
2023/03/05 05:28:11;;;;;;;2.60;1.15;;;3.30;99.90;;;;;;5065600;28;20074;-72
2023/03/05 05:30:36;;;;;;;3.42;0.77;;;3.40;99.90;;;;;;5047700;28;20480;-72
2023/03/05 05:33:02;;;;;;;2.67;0.95;;;3.30;99.90;;;;;;5065426;28;20110;-73
2023/03/05 05:35:27;;;;;;;1.30;1.20;;;3.30;99.90;;;;;;5066330;28;20540;-72
2023/03/05 05:37:53;;;;;;;2.83;1.52;;;3.30;99.90;;;;;;5047916;28;20127;-72
2023/03/05 05:40:19;;;;;;;2.58;1.10;;;3.30;99.90;;;;;;5030800;28;20556;-72
2023/03/05 05:42:45;;;;;;;1.33;1.13;;;3.30;99.90;;;;;;5076591;28;20628;-72
2023/03/05 05:45:11;;;;;;;12.65;1.80;;;3.30;99.90;;;;;;5085915;28;20075;-73
2023/03/05 05:47:36;;;;;;;3.88;1.38;;;3.30;99.90;;;;;;5069713;28;20091;-73
2023/03/05 05:50:04;;;;;;;0.73;0.70;;;3.30;99.90;;;;;;5065616;28;20040;-72
2023/03/05 05:52:29;;;;;;;1.05;0.80;;;3.30;99.90;;;;;;5078146;28;20123;-72
2023/03/05 05:54:55;;;;;;;2.50;0.95;;;3.20;99.90;;;;;;5086190;28;20122;-72
2023/03/05 05:57:21;;;;;;;8.90;1.50;;;3.20;99.90;;;;;;5066619;28;20048;-72
2023/03/05 05:59:46;;;;;;;2.42;0.90;;;3.20;99.90;;;;;;5051343;28;20044;-72
2023/03/05 06:02:12;;;;;;;5.77;2.43;;;3.20;99.90;;;;;;5067633;28;20047;-72
2023/03/05 06:04:39;;;;;;;3.00;1.13;;;3.20;99.90;;;;;;5064932;28;20032;-72
2023/03/05 06:07:05;;;;;;;10.25;1.20;;;3.10;99.90;;;;;;5030820;28;20533;-72
2023/03/05 06:09:31;;;;;;;8.73;1.17;;;3.10;99.90;;;;;;5050770;28;20056;-72
2023/03/05 06:11:56;;;;;;;11.60;3.33;;;3.10;99.90;;;;;;5044210;28;20102;-73
2023/03/05 06:14:22;;;;;;;1.67;1.23;;;3.10;99.90;;;;;;5071082;28;20551;-73
2023/03/05 06:16:47;;;;;;;4.22;2.03;;;3.10;99.90;;;;;;5071348;28;20480;-72
2023/03/05 06:19:14;;;;;;;1.83;1.15;;;3.10;99.90;;;;;;5088581;28;20042;-72
2023/03/05 06:21:40;;;;;;;2.27;1.43;;;3.10;99.90;;;;;;5070995;28;20036;-72
2023/03/05 06:24:06;;;;;;;6.27;1.57;;;3.00;99.90;;;;;;5070871;28;20105;-72
2023/03/05 06:26:32;;;;;;;2.40;1.33;;;3.10;99.90;;;;;;5088471;28;20036;-72
2023/03/05 06:28:58;;;;;;;6.67;2.13;;;3.10;99.90;;;;;;5055187;28;20344;-72
2023/03/05 06:31:26;;;;;;;1.53;1.00;;;3.10;99.90;;;;;;5068445;28;20036;-72
2023/03/05 06:33:57;;;;;;;2.30;1.00;;;3.10;99.90;;;;;;5068569;28;20040;-72
2023/03/05 06:36:24;;;;;;;4.70;2.53;;;3.10;99.90;;;;;;5050409;28;20047;-72
2023/03/05 06:38:51;;;;;;;3.33;1.15;;;3.10;99.90;;;;;;5034148;28;20063;-72
2023/03/05 06:41:19;;;;;;;5.07;1.98;;;3.10;99.90;;;;;;5067214;28;20051;-72
2023/03/05 06:43:46;;;;;;;2.83;2.40;;;3.10;99.90;;;;;;5068635;28;20053;-72
2023/03/05 06:46:21;;;;;;;6.90;2.03;;;3.10;99.90;;;;;;5054666;28;20036;-73
2023/03/05 06:48:48;;;;;;;4.67;1.80;;;3.10;99.90;;;;;;5053807;28;20047;-72
2023/03/05 06:51:19;;;;;;;2.53;1.00;;;3.20;99.90;;;;;;5072065;28;20127;-72
2023/03/05 06:53:45;;;;;;;3.07;1.83;;;3.20;99.90;;;;;;5079783;28;20051;-72
2023/03/05 06:56:12;;;;;;;2.63;0.60;;;3.20;99.90;;;;;;5068258;28;20051;-72
2023/03/05 06:58:42;;;;;;;6.70;1.02;;;3.20;99.90;;;;;;5057042;28;20056;-73
2023/03/05 07:01:08;;;;;;;9.80;1.03;;;3.20;99.90;;;;;;5050242;28;20080;-73
2023/03/05 07:03:35;;;;;;;3.40;1.25;;;3.20;99.90;;;;;;5057567;28;20129;-73
2023/03/05 07:06:05;;;;;;;1.40;1.30;;;3.20;99.90;;;;;;5087978;28;20032;-73
2023/03/05 07:08:32;;;;;;;7.47;1.27;;;3.20;99.90;;;;;;5070302;28;20088;-73
2023/03/05 07:10:58;;;;;;;6.88;2.08;;;3.20;99.90;;;;;;5055243;28;20044;-73
2023/03/05 07:13:24;;;;;;;10.00;1.35;;;3.20;99.90;;;;;;5067780;28;20509;-73
2023/03/05 07:15:50;;;;;;;3.85;2.20;;;3.20;99.90;;;;;;5069237;28;20497;-73
2023/03/05 07:18:15;;;;;;;2.42;1.05;;;3.30;99.90;;;;;;5055521;28;20036;-73
2023/03/05 07:20:41;;;;;;;5.07;1.13;;;3.30;99.90;;;;;;5053571;28;20090;-73
2023/03/05 07:23:07;;;;;;;1.50;0.90;;;3.30;99.90;;;;;;5061548;28;20591;-73
2023/03/05 07:25:35;;;;;;;1.97;0.70;;;3.30;99.90;;;;;;5067246;28;20550;-73
2023/03/05 07:28:01;;;;;;;2.35;1.58;;;3.30;99.90;;;;;;5069397;28;20040;-73
2023/03/05 07:30:27;;;;;;;2.40;1.00;;;3.30;99.90;;;;;;5066762;28;20047;-73
2023/03/05 07:32:52;;;;;;;4.33;2.30;;;3.40;99.90;;;;;;5086826;28;20044;-73
2023/03/05 07:35:18;;;;;;;4.90;1.83;;;3.40;99.90;;;;;;5059714;28;20083;-73
2023/03/05 07:37:44;;;;;;;1.40;1.17;;;3.40;99.90;;;;;;5079381;28;20079;-73
2023/03/05 07:40:10;;;;;;;4.82;2.78;;;3.40;99.90;;;;;;5075053;28;20119;-73
2023/03/05 07:42:35;;;;;;;5.20;2.03;;;3.40;99.90;;;;;;5074184;28;20131;-73
2023/03/05 07:45:01;;;;;;;10.73;1.42;;;3.50;99.90;;;;;;5069302;28;20128;-73
2023/03/05 07:47:27;;;;;;;4.55;1.60;;;3.50;99.90;;;;;;5055529;28;20082;-73
2023/03/05 07:49:52;;;;;;;4.70;1.83;;;3.50;99.90;;;;;;5067808;28;20051;-73
2023/03/05 07:52:18;;;;;;;3.42;1.83;;;3.60;99.90;;;;;;5050069;28;20056;-73
2023/03/05 07:54:43;;;;;;;3.63;1.73;;;3.60;99.90;;;;;;5079049;28;20540;-73
2023/03/05 07:57:12;;;;;;;2.67;1.20;;;3.60;99.90;;;;;;5046568;28;20140;-73
2023/03/05 07:59:38;;;;;;;1.50;0.75;;;3.60;99.90;;;;;;5070962;28;20044;-73
2023/03/05 08:02:04;;;;;;;4.07;2.77;;;3.70;99.90;;;;;;5049180;28;20075;-73
2023/03/05 08:04:30;;;;;;;3.90;1.30;;;3.70;99.90;;;;;;5068669;28;20044;-73
2023/03/05 08:06:59;;;;;;;1.60;0.90;;;3.80;99.90;;;;;;5082432;28;20067;-73
2023/03/05 08:09:26;;;;;;;16.05;2.45;;;3.80;99.90;;;;;;5087884;28;20035;-73
2023/03/05 08:11:52;;;;;;;3.97;1.67;;;3.80;99.90;;;;;;5064254;28;20119;-74
2023/03/05 08:14:17;;;;;;;5.13;1.77;;;3.90;99.90;;;;;;5051239;28;20178;-74
2023/03/05 08:16:43;;;;;;;1.77;0.70;;;3.90;99.90;;;;;;5080243;28;20036;-73
2023/03/05 08:19:09;;;;;;;0.80;0.68;;;3.90;99.90;;;;;;5075439;28;20434;-74
2023/03/05 08:21:35;;;;;;;24.92;2.08;;;3.90;99.90;;;;;;5077999;28;20524;-74
2023/03/05 08:24:06;;;;;;;8.93;1.13;;;4.00;99.90;;;;;;5066816;28;20052;-74
2023/03/05 08:26:34;;;;;;;14.65;3.95;;;4.00;99.90;;;;;;5062208;28;20067;-75
2023/03/05 08:29:02;;;;;;;4.13;1.52;;;4.00;99.90;;;;;;5076913;28;20051;-74
2023/03/05 08:31:29;;;;;;;4.88;3.80;;;4.10;99.90;;;;;;5081409;28;20171;-74
2023/03/05 08:33:56;;;;;;;3.30;1.77;;;4.10;99.90;;;;;;5068859;28;20053;-73
2023/03/05 08:36:22;;;;;;;2.60;2.08;;;4.20;99.90;;;;;;5066261;28;20037;-74
2023/03/05 08:38:49;;;;;;;2.70;1.85;;;4.20;99.90;;;;;;5051870;28;20028;-74
2023/03/05 08:41:16;;;;;;;6.53;2.25;;;4.30;99.90;;;;;;5085312;28;20071;-74
2023/03/05 08:43:42;;;;;;;2.70;1.85;;;4.30;99.90;;;;;;5066112;28;20044;-74
2023/03/05 08:46:09;;;;;;;4.20;1.27;;;4.30;99.90;;;;;;5078562;28;20082;-75
2023/03/05 08:48:35;;;;;;;2.97;0.73;;;4.30;99.90;;;;;;5056877;28;20051;-74
2023/03/05 08:51:06;;;;;;;6.78;1.17;;;4.40;99.90;;;;;;5061664;28;20040;-75
2023/03/05 08:53:32;;;;;;;6.00;1.83;;;4.40;99.90;;;;;;5055404;28;20083;-75
2023/03/05 08:55:58;;;;;;;18.48;1.73;;;4.50;99.90;;;;;;5047646;28;20488;-76
2023/03/05 08:58:24;;;;;;;4.10;2.22;;;4.50;99.90;;;;;;5048032;28;20083;-74
2023/03/05 09:00:50;;;;;;;2.10;1.95;;;4.60;99.90;;;;;;5066412;28;20055;-75
2023/03/05 09:03:17;;;;;;;4.88;1.85;;;4.60;99.90;;;;;;5066066;28;20404;-75
2023/03/05 09:05:43;;;;;;;4.85;1.33;;;4.70;99.90;;;;;;5066415;28;20043;-75
2023/03/05 09:08:09;;;;;;;7.57;1.52;;;4.70;99.90;;;;;;5047758;28;20471;-75
2023/03/05 09:10:34;;;;;;;3.15;1.20;;;4.70;99.90;;;;;;5084870;28;20085;-75
2023/03/05 09:13:00;;;;;;;14.15;2.15;;;4.70;99.90;;;;;;5085980;28;20052;-74
2023/03/05 09:15:26;;;;;;;9.70;2.17;;;4.70;99.90;;;;;;5066769;28;20036;-74
2023/03/05 09:17:51;;;;;;;4.45;2.33;;;4.70;99.90;;;;;;5076255;28;20036;-75
2023/03/05 09:20:17;;;;;;;1.67;0.75;;;4.70;99.90;;;;;;5067836;28;20032;-75
2023/03/05 09:22:43;;;;;;;4.80;1.90;;;4.70;99.90;;;;;;5033943;28;20039;-75
2023/03/05 09:25:11;;;;;;;6.00;1.30;;;4.70;99.90;;;;;;5047203;28;20401;-75
2023/03/05 09:27:37;;;;;;;2.70;1.85;;;4.80;99.90;;;;;;5052267;28;20400;-75
2023/03/05 09:30:05;;;;;;;3.97;1.50;;;4.80;99.90;;;;;;5086087;28;20138;-75
2023/03/05 09:32:31;;;;;;;1.85;1.27;;;4.90;99.90;;;;;;5063441;28;20093;-75
2023/03/05 09:34:57;;;;;;;2.42;0.93;;;5.00;99.90;;;;;;5074283;28;20124;-75
2023/03/05 09:37:23;;;;;;;1.45;0.93;;;5.00;99.90;;;;;;5065404;28;20036;-75
2023/03/05 09:39:48;;;;;;;2.72;0.68;;;5.00;99.90;;;;;;5080175;28;20063;-75
2023/03/05 09:42:35;;;;;;;1.30;1.20;;;5.10;99.90;;;;;;5079678;28;20036;-75
2023/03/05 09:45:15;;;;;;;1.80;1.38;;;5.20;99.90;;;;;;5060996;28;20404;-75
2023/03/05 09:48:22;;;;;;;2.35;1.00;;;5.20;99.90;;;;;;5065080;28;20098;-74
2023/03/05 09:50:58;;;;;;;2.30;0.90;;;5.20;99.90;;;;;;5068563;28;20052;-73
2023/03/05 09:53:43;;;;;;;2.33;1.02;;;5.10;99.90;;;;;;5087641;28;20036;-74
2023/03/05 09:56:14;;;;;;;7.50;2.17;;;5.10;99.90;;;;;;5070717;28;20119;-73
2023/03/05 09:58:51;;;;;;;13.80;1.05;;;5.10;99.90;;;;;;5069763;28;20124;-74
2023/03/05 10:01:21;;;;;;;2.28;1.30;;;5.20;99.90;;;;;;5059488;28;20131;-74
2023/03/05 10:04:02;;;;;;;2.65;0.85;;;5.20;99.90;;;;;;5061138;28;20498;-75
2023/03/05 10:06:32;;;;;;;1.38;0.50;;;5.20;99.90;;;;;;5061753;28;20044;-75
2023/03/05 10:09:30;;;;;;;4.78;1.08;;;5.20;99.90;;;;;;5058534;28;20040;-75
2023/03/05 10:12:10;;;;;;;2.28;1.40;;;5.30;99.90;;;;;;5078521;28;20059;-76
2023/03/05 10:14:39;;;;;;;18.33;1.98;;;5.30;99.90;;;;;;5045788;28;20082;-76
2023/03/05 10:17:33;;;;;;;2.30;1.52;;;5.40;99.90;;;;;;5071944;28;20041;-78
2023/03/05 10:20:03;;;;;;;4.38;2.30;;;5.40;99.90;;;;;;5079511;28;20048;-76
2023/03/05 10:22:53;;;;;;;3.10;1.85;;;5.60;99.90;;;;;;5073759;28;20044;-75
2023/03/05 10:25:56;;;;;;;4.05;2.50;;;5.60;99.90;;;;;;5059062;28;20055;-76
2023/03/05 10:28:41;;;;;;;2.88;1.58;;;5.60;99.90;;;;;;5068547;28;20072;-76
2023/03/05 10:31:12;;;;;;;2.38;1.10;;;5.60;99.90;;;;;;5054217;28;20048;-76
2023/03/05 10:33:58;;;;;;;2.70;1.80;;;5.60;99.90;;;;;;5049139;28;20048;-79
2023/03/05 10:37:01;;;;;;;2.58;0.88;;;5.60;99.90;;;;;;5056701;28;20063;-74
2023/03/05 10:39:44;;;;;;;3.83;0.52;;;5.60;99.90;;;;;;5073599;28;20551;-79
2023/03/05 10:42:29;;;;;;;2.42;1.70;;;5.60;99.90;;;;;;5061607;28;20113;-77
2023/03/05 10:44:59;;;;;;;2.20;1.10;;;5.70;99.90;;;;;;5066276;28;20337;-78
2023/03/05 10:47:52;;;;;;;0.40;0.40;;;5.70;99.90;;;;;;5075479;28;20040;-79
2023/03/05 10:50:24;;;;;;;1.85;0.90;;;5.70;99.90;;;;;;5050492;28;20401;-80
2023/03/05 10:53:20;;;;;;;0.50;0.50;;;5.80;99.90;;;;;;5076100;28;20708;-77
2023/03/05 10:55:45;;;;;;;3.55;1.08;;;5.80;99.90;;;;;;5077041;28;20040;-82
2023/03/05 10:58:13;;;;;;;0.88;0.55;;;5.80;99.90;;;;;;5068267;28;20448;-77
2023/03/05 11:00:40;;;;;;;1.75;0.98;;;5.80;99.90;;;;;;5038461;28;20051;-77
2023/03/05 11:03:09;;;;;;;6.15;1.75;;;5.80;99.90;;;;;;5064808;28;20093;-77
2023/03/05 11:05:37;;;;;;;3.85;0.70;;;5.80;99.90;;;;;;5054301;28;20044;-75
2023/03/05 11:08:21;;;;;;;0.75;0.70;;;5.80;99.90;;;;;;5052747;28;20094;-74
2023/03/05 11:11:00;;;;;;;0.90;0.90;;;5.80;99.90;;;;;;5069847;28;20044;-77
2023/03/05 11:13:27;;;;;;;1.27;1.17;;;5.90;99.90;;;;;;5089067;28;20473;-73
2023/03/05 11:16:02;;;;;;;4.15;1.65;;;5.90;99.90;;;;;;5089375;28;20052;-73
2023/03/05 11:18:33;;;;;;;1.45;1.15;;;6.00;99.90;;;;;;5089473;28;20114;-74
2023/03/05 11:21:07;;;;;;;7.35;1.92;;;6.00;99.90;;;;;;5088836;28;20048;-75
2023/03/05 11:23:32;;;;;;;1.65;0.80;;;6.00;99.90;;;;;;5070709;28;20048;-75
2023/03/05 11:26:21;;;;;;;2.08;0.70;;;6.00;99.90;;;;;;5086616;28;20040;-74
2023/03/05 11:28:52;;;;;;;1.50;1.02;;;6.10;99.90;;;;;;5061695;28;20064;-72
2023/03/05 11:31:23;;;;;;;0.82;0.63;;;6.10;99.90;;;;;;5082411;28;20078;-77
2023/03/05 11:34:02;;;;;;;2.40;0.93;;;6.10;99.90;;;;;;5070650;28;20127;-77
2023/03/05 11:36:35;;;;;;;3.58;0.90;;;6.00;99.90;;;;;;5087704;28;20046;-75
2023/03/05 11:39:13;;;;;;;0.68;0.47;;;6.10;99.90;;;;;;5077176;28;20152;-73
2023/03/05 11:42:03;;;;;;;4.57;1.33;;;6.10;99.90;;;;;;5074310;28;20051;-77
2023/03/05 11:44:49;;;;;;;1.23;0.98;;;6.10;99.90;;;;;;5083498;28;20059;-75
2023/03/05 11:47:44;;;;;;;3.72;2.40;;;6.00;99.90;;;;;;5051733;28;20074;-72
2023/03/05 11:50:25;;;;;;;2.67;0.85;;;6.00;99.90;;;;;;5064020;28;20518;-73
2023/03/05 11:53:20;;;;;;;4.32;1.65;;;5.90;99.90;;;;;;5058625;28;20097;-74
2023/03/05 11:55:53;;;;;;;2.58;0.95;;;5.90;99.90;;;;;;5077143;28;20435;-74
2023/03/05 11:58:24;;;;;;;;;;;5.90;99.90;;;;;;5055991;28;20046;-73
2023/03/05 12:00:50;;;;;;;0.93;0.90;;;6.00;99.90;;;;;;5056116;28;19929;-74
2023/03/05 12:03:27;;;;;;;2.92;0.88;;;6.00;99.90;;;;;;5066575;28;20067;-74
2023/03/05 12:05:59;;;;;;;5.72;0.93;;;6.10;99.90;;;;;;5080148;28;20560;-74
2023/03/05 12:08:34;;;;;;;4.47;0.70;;;6.10;99.90;;;;;;5051588;28;20036;-74
2023/03/05 12:11:06;;;;;;;3.65;0.98;;;6.20;99.90;;;;;;5079803;28;20487;-75
2023/03/05 12:13:38;;;;;;;2.50;0.75;;;6.20;99.90;;;;;;5033552;28;20045;-74
2023/03/05 12:16:27;;;;;;;2.53;0.85;;;6.20;99.90;;;;;;5012892;28;20076;-74
2023/03/05 12:19:11;;;;;;;2.17;1.02;;;6.30;99.90;;;;;;5029776;28;20045;-76
2023/03/05 12:21:39;;;;;;;2.97;1.40;;;6.30;99.90;;;;;;5042556;28;20171;-75
2023/03/05 12:24:23;;;;;;;3.05;0.82;;;6.30;99.90;;;;;;5032878;28;20591;-73
2023/03/05 12:26:51;;;;;;;2.60;1.20;;;6.30;99.90;;;;;;5024831;28;20080;-75
2023/03/05 12:29:43;;;;;;;0.85;0.85;;;6.30;99.90;;;;;;5031093;28;20133;-76
2023/03/05 12:32:21;;;;;;;4.05;1.33;;;6.30;99.90;;;;;;5026845;28;20088;-74
2023/03/05 12:35:04;;;;;;;1.58;0.90;;;6.40;99.90;;;;;;5025922;28;20499;-74
2023/03/05 12:37:30;;;;;;;4.07;1.13;;;6.40;99.90;;;;;;5027054;28;20067;-75
2023/03/05 12:40:07;;;;;;;0.60;0.60;;;6.40;99.90;;;;;;5027011;28;20405;-74
2023/03/05 12:42:33;;;;;;;4.45;1.48;;;6.50;99.90;;;;;;5042247;28;20115;-74
2023/03/05 12:45:11;;;;;;;1.27;0.75;;;6.50;99.90;;;;;;5027821;28;20080;-74
2023/03/05 12:47:36;;;;;;;1.33;0.60;;;6.40;99.90;;;;;;5033000;28;20528;-74
2023/03/05 12:50:04;;;;;;;1.23;0.68;;;6.50;99.90;;;;;;5032054;28;20055;-74
2023/03/05 12:52:32;;;;;;;3.70;1.95;;;6.40;99.90;;;;;;5036541;28;20366;-77
2023/03/05 12:55:20;;;;;;;4.03;1.52;;;6.40;99.90;;;;;;5034733;28;20132;-75
2023/03/05 12:57:56;;;;;;;0.98;0.80;;;6.40;99.90;;;;;;5037169;28;20450;-73
2023/03/05 13:00:27;;;;;;;2.15;0.80;;;6.40;99.90;;;;;;5046505;28;20038;-74
2023/03/05 13:02:59;;;;;;;0.50;0.50;;;6.40;99.90;;;;;;5030078;28;20525;-75
2023/03/05 13:05:29;;;;;;;0.77;0.60;;;6.40;99.90;;;;;;5032090;28;20051;-74
2023/03/05 13:08:25;;;;;;;1.58;0.82;;;6.40;99.90;;;;;;5034345;28;20053;-74